createdAt,value
2023-02-02T00:00:57.061Z,0
2023-02-02T00:01:57.032Z,0
2023-02-02T00:02:57.079Z,0
2023-02-02T00:03:57.122Z,0
2023-02-02T00:04:57.036Z,0
2023-02-02T00:05:57.036Z,0
2023-02-02T00:06:57.054Z,0
2023-02-02T00:07:57.035Z,0
2023-02-02T00:08:57.038Z,0
2023-02-02T00:09:57.042Z,0
2023-02-02T00:10:57.042Z,0
2023-02-02T00:11:57.043Z,0
2023-02-02T00:12:57.058Z,0
2023-02-02T00:13:57.065Z,0
2023-02-02T00:14:57.045Z,0
2023-02-02T00:15:57.064Z,0
2023-02-02T00:16:57.084Z,0
2023-02-02T00:17:57.047Z,0
2023-02-02T00:18:57.048Z,0
2023-02-02T00:19:57.053Z,0
2023-02-02T00:20:57.048Z,0
2023-02-02T00:21:57.055Z,0
2023-02-02T00:22:57.049Z,0
2023-02-02T00:23:57.056Z,0
2023-02-02T00:24:57.061Z,0
2023-02-02T00:25:57.061Z,0
2023-02-02T00:26:57.058Z,0
2023-02-02T00:27:57.054Z,0
2023-02-02T00:28:57.059Z,0
2023-02-02T00:29:57.064Z,0
2023-02-02T00:30:57.082Z,0
2023-02-02T00:31:57.075Z,0
2023-02-02T00:32:57.095Z,0
2023-02-02T00:33:57.073Z,0
2023-02-02T00:34:57.072Z,0
2023-02-02T00:35:57.071Z,0
2023-02-02T00:36:57.069Z,0
2023-02-02T00:37:57.087Z,0
2023-02-02T00:38:57.069Z,0
2023-02-02T00:39:57.071Z,0
2023-02-02T00:40:57.075Z,0
2023-02-02T00:41:57.073Z,0
2023-02-02T00:42:57.075Z,0
2023-02-02T00:43:57.077Z,0
2023-02-02T00:44:57.077Z,0
2023-02-02T00:45:57.116Z,0
2023-02-02T00:46:57.077Z,0
2023-02-02T00:47:57.079Z,0
2023-02-02T00:48:57.106Z,0
2023-02-02T00:49:57.082Z,0
2023-02-02T00:50:57.078Z,0
2023-02-02T00:51:57.095Z,0
2023-02-02T00:52:57.082Z,0
2023-02-02T00:53:57.084Z,0
2023-02-02T00:54:57.085Z,0
2023-02-02T00:55:57.085Z,0
2023-02-02T00:56:57.093Z,0
2023-02-02T00:57:57.087Z,0
2023-02-02T00:58:57.104Z,0
2023-02-02T00:59:57.105Z,0
2023-02-02T01:00:57.132Z,0
2023-02-02T01:01:57.140Z,0
2023-02-02T01:02:57.089Z,0
2023-02-02T01:03:57.091Z,0
2023-02-02T01:04:57.132Z,0
2023-02-02T01:05:57.116Z,0
2023-02-02T01:06:57.097Z,0
2023-02-02T01:07:57.097Z,0
2023-02-02T01:08:57.102Z,0
2023-02-02T01:09:57.114Z,0
2023-02-02T01:10:57.096Z,0
2023-02-02T01:11:57.103Z,0
2023-02-02T01:12:57.101Z,0
2023-02-02T01:13:57.096Z,0
2023-02-02T01:14:57.098Z,0
2023-02-02T01:15:57.092Z,0
2023-02-02T01:16:57.096Z,0
2023-02-02T01:17:57.093Z,0
2023-02-02T01:18:57.096Z,0
2023-02-02T01:19:57.096Z,0
2023-02-02T01:20:57.120Z,0
2023-02-02T01:21:57.103Z,0
2023-02-02T01:22:57.098Z,0
2023-02-02T01:23:57.098Z,0
2023-02-02T01:24:57.099Z,0
2023-02-02T01:25:57.099Z,0
2023-02-02T01:26:57.099Z,0
2023-02-02T01:27:57.102Z,0
2023-02-02T01:28:57.100Z,0
2023-02-02T01:29:57.101Z,0
2023-02-02T01:30:57.151Z,0
2023-02-02T01:31:57.117Z,0
2023-02-02T01:32:57.100Z,0
2023-02-02T01:33:57.114Z,0
2023-02-02T01:34:57.103Z,0
2023-02-02T01:35:57.116Z,0
2023-02-02T01:36:57.123Z,0
2023-02-02T01:37:57.103Z,0
2023-02-02T01:38:57.115Z,0
2023-02-02T01:39:57.099Z,0
2023-02-02T01:40:57.102Z,0
2023-02-02T01:41:57.102Z,0
2023-02-02T01:42:57.107Z,0
2023-02-02T01:43:57.125Z,0
2023-02-02T01:44:57.101Z,0
2023-02-02T01:45:57.114Z,0
2023-02-02T01:46:57.105Z,0
2023-02-02T01:47:57.103Z,0
2023-02-02T01:48:57.110Z,0
2023-02-02T01:49:57.113Z,0
2023-02-02T01:50:57.110Z,0
2023-02-02T01:51:57.109Z,0
2023-02-02T01:52:57.141Z,0
2023-02-02T01:53:57.115Z,0
2023-02-02T01:54:57.113Z,0
2023-02-02T01:55:57.120Z,0
2023-02-02T01:56:57.115Z,0
2023-02-02T01:57:57.117Z,0
2023-02-02T01:58:57.118Z,0
2023-02-02T01:59:57.116Z,0
2023-02-02T02:00:57.157Z,0
2023-02-02T02:01:57.119Z,0
2023-02-02T02:02:57.120Z,0
2023-02-02T02:03:57.122Z,0
2023-02-02T02:04:57.121Z,0
2023-02-02T02:05:57.133Z,0
2023-02-02T02:06:57.131Z,0
2023-02-02T02:07:57.136Z,0
2023-02-02T02:08:57.147Z,0
2023-02-02T02:09:57.126Z,0
2023-02-02T02:10:57.125Z,0
2023-02-02T02:11:57.140Z,0
2023-02-02T02:12:57.132Z,0
2023-02-02T02:13:57.138Z,0
2023-02-02T02:14:57.129Z,0
2023-02-02T02:15:57.129Z,0
2023-02-02T02:16:57.212Z,0
2023-02-02T02:17:57.134Z,0
2023-02-02T02:18:57.139Z,0
2023-02-02T02:19:57.136Z,0
2023-02-02T02:20:57.135Z,0
2023-02-02T02:21:57.136Z,0
2023-02-02T02:22:57.137Z,0
2023-02-02T02:23:57.143Z,0
2023-02-02T02:24:57.163Z,0
2023-02-02T02:25:57.137Z,0
2023-02-02T02:26:57.139Z,0
2023-02-02T02:27:57.140Z,0
2023-02-02T02:28:57.150Z,0
2023-02-02T02:29:57.151Z,0
2023-02-02T02:30:57.249Z,0
2023-02-02T02:31:57.147Z,0
2023-02-02T02:32:57.145Z,0
2023-02-02T02:33:57.145Z,0
2023-02-02T02:34:57.146Z,0
2023-02-02T02:35:57.143Z,0
2023-02-02T02:36:57.145Z,0
2023-02-02T02:37:57.149Z,0
2023-02-02T02:38:57.148Z,0
2023-02-02T02:39:57.149Z,0
2023-02-02T02:40:57.178Z,0
2023-02-02T02:41:57.156Z,0
2023-02-02T02:42:57.153Z,0
2023-02-02T02:43:57.153Z,0
2023-02-02T02:44:57.153Z,0
2023-02-02T02:45:57.207Z,0
2023-02-02T02:46:57.162Z,0
2023-02-02T02:47:57.153Z,0
2023-02-02T02:48:57.175Z,0
2023-02-02T02:49:57.154Z,0
2023-02-02T02:50:57.159Z,0
2023-02-02T02:51:57.155Z,0
2023-02-02T02:52:57.156Z,0
2023-02-02T02:53:57.161Z,0
2023-02-02T02:54:57.161Z,0
2023-02-02T02:55:57.164Z,0
2023-02-02T02:56:57.185Z,0
2023-02-02T02:57:57.159Z,0
2023-02-02T02:58:57.160Z,0
2023-02-02T02:59:57.166Z,0
2023-02-02T03:00:57.166Z,0
2023-02-02T03:01:57.169Z,0
2023-02-02T03:02:57.223Z,0
2023-02-02T03:03:57.164Z,0
2023-02-02T03:04:57.166Z,0
2023-02-02T03:05:57.173Z,0
2023-02-02T03:06:57.167Z,0
2023-02-02T03:07:57.171Z,0
2023-02-02T03:08:57.167Z,0
2023-02-02T03:09:57.167Z,0
2023-02-02T03:10:57.169Z,0
2023-02-02T03:11:57.174Z,0
2023-02-02T03:12:57.199Z,0
2023-02-02T03:13:57.179Z,0
2023-02-02T03:14:57.179Z,0
2023-02-02T03:15:57.182Z,0
2023-02-02T03:16:57.180Z,0
2023-02-02T03:17:57.170Z,0
2023-02-02T03:18:57.170Z,0
2023-02-02T03:19:57.185Z,0
2023-02-02T03:20:57.175Z,0
2023-02-02T03:21:57.177Z,0
2023-02-02T03:22:57.178Z,0
2023-02-02T03:23:57.176Z,0
2023-02-02T03:24:57.181Z,0
2023-02-02T03:25:57.189Z,0
2023-02-02T03:26:57.180Z,0
2023-02-02T03:27:57.181Z,0
2023-02-02T03:28:57.202Z,0
2023-02-02T03:29:57.189Z,0
2023-02-02T03:30:57.260Z,0
2023-02-02T03:31:57.182Z,0
2023-02-02T03:32:57.177Z,0
2023-02-02T03:33:57.182Z,0
2023-02-02T03:34:57.184Z,0
2023-02-02T03:35:57.183Z,0
2023-02-02T03:36:57.182Z,0
2023-02-02T03:37:57.187Z,0
2023-02-02T03:38:57.182Z,0
2023-02-02T03:39:57.186Z,0
2023-02-02T03:40:57.187Z,0
2023-02-02T03:41:57.186Z,0
2023-02-02T03:42:57.187Z,0
2023-02-02T03:43:57.186Z,0
2023-02-02T03:44:57.211Z,0
2023-02-02T03:45:57.188Z,0
2023-02-02T03:46:57.187Z,0
2023-02-02T03:47:57.191Z,0
2023-02-02T03:48:57.188Z,0
2023-02-02T03:49:57.197Z,0
2023-02-02T03:50:57.193Z,0
2023-02-02T03:51:57.191Z,0
2023-02-02T03:52:57.190Z,0
2023-02-02T03:53:57.191Z,0
2023-02-02T03:54:57.193Z,0
2023-02-02T03:55:57.195Z,0
2023-02-02T03:56:57.192Z,0
2023-02-02T03:57:57.195Z,0
2023-02-02T03:58:57.194Z,0
2023-02-02T03:59:57.224Z,0
2023-02-02T04:00:57.223Z,0
2023-02-02T04:01:57.284Z,0
2023-02-02T04:02:57.199Z,0
2023-02-02T04:03:57.194Z,0
2023-02-02T04:04:57.196Z,0
2023-02-02T04:05:57.200Z,0
2023-02-02T04:06:57.197Z,0
2023-02-02T04:07:57.196Z,0
2023-02-02T04:08:57.199Z,0
2023-02-02T04:09:57.195Z,0
2023-02-02T04:10:57.199Z,0
2023-02-02T04:11:57.198Z,0
2023-02-02T04:12:57.195Z,0
2023-02-02T04:13:57.200Z,0
2023-02-02T04:14:57.196Z,0
2023-02-02T04:15:57.239Z,0
2023-02-02T04:16:57.225Z,0
2023-02-02T04:17:57.201Z,0
2023-02-02T04:18:57.204Z,0
2023-02-02T04:19:57.202Z,0
2023-02-02T04:20:57.207Z,0
2023-02-02T04:21:57.210Z,0
2023-02-02T04:22:57.208Z,0
2023-02-02T04:23:57.205Z,0
2023-02-02T04:24:57.205Z,0
2023-02-02T04:25:57.218Z,0
2023-02-02T04:26:57.212Z,0
2023-02-02T04:27:57.217Z,0
2023-02-02T04:28:57.215Z,0
2023-02-02T04:29:57.215Z,0
2023-02-02T04:30:57.306Z,0
2023-02-02T04:31:57.226Z,0
2023-02-02T04:32:57.252Z,0
2023-02-02T04:33:57.219Z,0
2023-02-02T04:34:57.219Z,0
2023-02-02T04:35:57.227Z,0
2023-02-02T04:36:57.222Z,0
2023-02-02T04:37:57.229Z,0
2023-02-02T04:38:57.227Z,0
2023-02-02T04:39:57.231Z,0
2023-02-02T04:40:57.228Z,0
2023-02-02T04:41:57.230Z,0
2023-02-02T04:42:57.233Z,0
2023-02-02T04:43:57.231Z,0
2023-02-02T04:44:57.230Z,0
2023-02-02T04:45:57.292Z,0
2023-02-02T04:46:57.259Z,0
2023-02-02T04:47:57.238Z,0
2023-02-02T04:48:57.264Z,12
2023-02-02T04:49:57.239Z,0
2023-02-02T04:50:57.242Z,0
2023-02-02T04:51:57.238Z,0
2023-02-02T04:52:57.249Z,0
2023-02-02T04:53:57.244Z,0
2023-02-02T04:54:57.240Z,0
2023-02-02T04:55:57.242Z,0
2023-02-02T04:56:57.254Z,0
2023-02-02T04:57:57.248Z,0
2023-02-02T04:58:57.245Z,0
2023-02-02T04:59:57.248Z,0
2023-02-02T05:00:57.274Z,0
2023-02-02T05:01:57.253Z,0
2023-02-02T05:02:57.252Z,0
2023-02-02T05:03:57.251Z,0
2023-02-02T05:04:57.279Z,0
2023-02-02T05:05:57.254Z,0
2023-02-02T05:06:57.256Z,0
2023-02-02T05:07:57.252Z,0
2023-02-02T05:08:57.272Z,0
2023-02-02T05:09:57.258Z,0
2023-02-02T05:10:57.259Z,0
2023-02-02T05:11:57.259Z,0
2023-02-02T05:12:57.276Z,0
2023-02-02T05:13:57.260Z,0
2023-02-02T05:14:57.260Z,0
2023-02-02T05:15:57.267Z,0
2023-02-02T05:16:57.315Z,0
2023-02-02T05:17:57.270Z,0
2023-02-02T05:18:57.268Z,0
2023-02-02T05:19:57.263Z,0
2023-02-02T05:20:57.291Z,0
2023-02-02T05:21:57.267Z,0
2023-02-02T05:22:57.264Z,0
2023-02-02T05:23:57.262Z,0
2023-02-02T05:24:57.269Z,0
2023-02-02T05:25:57.276Z,0
2023-02-02T05:26:57.342Z,0
2023-02-02T05:27:57.269Z,0
2023-02-02T05:28:57.266Z,0
2023-02-02T05:29:57.268Z,0
2023-02-02T05:30:57.303Z,0
2023-02-02T05:31:57.310Z,0
2023-02-02T05:32:57.272Z,0
2023-02-02T05:33:57.270Z,0
2023-02-02T05:34:57.277Z,0
2023-02-02T05:35:57.274Z,0
2023-02-02T05:36:57.296Z,0
2023-02-02T05:37:59.217Z,0
2023-02-02T05:38:57.276Z,0
2023-02-02T05:39:57.276Z,0
2023-02-02T05:40:57.282Z,0
2023-02-02T05:41:57.280Z,0
2023-02-02T05:42:57.278Z,0
2023-02-02T05:43:57.280Z,0
2023-02-02T05:44:57.281Z,0
2023-02-02T05:45:57.310Z,0
2023-02-02T05:46:57.281Z,0
2023-02-02T05:47:57.278Z,0
2023-02-02T05:48:57.280Z,0
2023-02-02T05:49:57.280Z,0
2023-02-02T05:50:57.289Z,0
2023-02-02T05:51:57.291Z,0
2023-02-02T05:52:57.309Z,0
2023-02-02T05:53:57.283Z,0
2023-02-02T05:54:57.298Z,0
2023-02-02T05:55:57.284Z,0
2023-02-02T05:56:57.283Z,0
2023-02-02T05:57:57.287Z,0
2023-02-02T05:58:57.295Z,0
2023-02-02T05:59:57.289Z,0
2023-02-02T06:00:57.293Z,0
2023-02-02T06:01:57.292Z,0
2023-02-02T06:02:57.291Z,0
2023-02-02T06:03:57.369Z,0
2023-02-02T06:04:57.293Z,0
2023-02-02T06:05:57.297Z,0
2023-02-02T06:06:57.292Z,0
2023-02-02T06:07:57.293Z,0
2023-02-02T06:08:57.319Z,0
2023-02-02T06:09:57.297Z,0
2023-02-02T06:10:57.305Z,0
2023-02-02T06:11:57.297Z,0
2023-02-02T06:12:57.292Z,0
2023-02-02T06:13:57.292Z,0
2023-02-02T06:14:57.296Z,0
2023-02-02T06:15:57.332Z,0
2023-02-02T06:16:57.295Z,0
2023-02-02T06:17:57.297Z,0
2023-02-02T06:18:57.295Z,2
2023-02-02T06:19:57.300Z,2
2023-02-02T06:20:57.300Z,2
2023-02-02T06:21:57.299Z,2
2023-02-02T06:22:57.296Z,2
2023-02-02T06:23:57.297Z,3
2023-02-02T06:24:57.323Z,3
2023-02-02T06:25:57.298Z,3
2023-02-02T06:26:57.320Z,3
2023-02-02T06:27:57.299Z,3
2023-02-02T06:28:57.299Z,6
2023-02-02T06:29:57.304Z,6
2023-02-02T06:30:57.375Z,6
2023-02-02T06:31:57.385Z,6
2023-02-02T06:32:57.301Z,6
2023-02-02T06:33:57.300Z,11
2023-02-02T06:34:57.304Z,11
2023-02-02T06:35:57.312Z,11
2023-02-02T06:36:57.311Z,11
2023-02-02T06:37:57.313Z,11
2023-02-02T06:38:57.329Z,15
2023-02-02T06:39:57.328Z,15
2023-02-02T06:40:57.342Z,15
2023-02-02T06:41:57.318Z,15
2023-02-02T06:42:57.319Z,15
2023-02-02T06:43:57.318Z,22
2023-02-02T06:44:57.329Z,22
2023-02-02T06:45:57.370Z,22
2023-02-02T06:46:57.325Z,22
2023-02-02T06:47:57.330Z,22
2023-02-02T06:48:57.327Z,30
2023-02-02T06:49:57.337Z,30
2023-02-02T06:50:57.337Z,30
2023-02-02T06:51:57.339Z,30
2023-02-02T06:52:57.337Z,30
2023-02-02T06:53:59.455Z,47
2023-02-02T06:54:57.340Z,47
2023-02-02T06:55:57.339Z,47
2023-02-02T06:56:57.378Z,47
2023-02-02T06:57:57.354Z,47
2023-02-02T06:58:57.352Z,59
2023-02-02T06:59:57.350Z,59
2023-02-02T07:00:57.344Z,59
2023-02-02T07:01:57.365Z,59
2023-02-02T07:02:57.420Z,59
2023-02-02T07:03:57.352Z,67
2023-02-02T07:04:57.356Z,67
2023-02-02T07:05:57.358Z,67
2023-02-02T07:06:57.364Z,67
2023-02-02T07:07:57.364Z,67
2023-02-02T07:09:02.410Z,83
2023-02-02T07:09:57.992Z,83
2023-02-02T07:11:09.648Z,83
2023-02-02T07:11:59.396Z,83
2023-02-02T07:12:57.403Z,83
2023-02-02T07:13:57.379Z,121
2023-02-02T07:14:57.379Z,121
2023-02-02T07:15:57.399Z,121
2023-02-02T07:16:57.377Z,121
2023-02-02T07:17:57.375Z,121
2023-02-02T07:18:57.400Z,160
2023-02-02T07:19:57.395Z,160
2023-02-02T07:20:57.382Z,160
2023-02-02T07:21:57.383Z,160
2023-02-02T07:22:57.378Z,160
2023-02-02T07:23:57.396Z,168
2023-02-02T07:24:57.384Z,168
2023-02-02T07:25:57.386Z,168
2023-02-02T07:26:57.403Z,168
2023-02-02T07:27:57.384Z,214
2023-02-02T07:28:57.411Z,166
2023-02-02T07:29:57.393Z,166
2023-02-02T07:30:57.603Z,166
2023-02-02T07:31:57.415Z,166
2023-02-02T07:32:57.424Z,166
2023-02-02T07:33:57.397Z,174
2023-02-02T07:34:57.395Z,174
2023-02-02T07:35:57.406Z,174
2023-02-02T07:36:57.413Z,174
2023-02-02T07:37:57.403Z,174
2023-02-02T07:38:57.525Z,216
2023-02-02T07:39:57.403Z,216
2023-02-02T07:40:57.404Z,216
2023-02-02T07:41:57.404Z,216
2023-02-02T07:42:57.415Z,216
2023-02-02T07:43:57.409Z,223
2023-02-02T07:44:57.435Z,223
2023-02-02T07:45:57.413Z,223
2023-02-02T07:46:57.411Z,223
2023-02-02T07:47:57.426Z,223
2023-02-02T07:48:57.414Z,223
2023-02-02T07:49:57.416Z,258
2023-02-02T07:50:57.419Z,258
2023-02-02T07:51:57.420Z,258
2023-02-02T07:52:57.427Z,258
2023-02-02T07:53:57.423Z,258
2023-02-02T07:55:09.032Z,283
2023-02-02T07:55:57.433Z,283
2023-02-02T07:56:57.429Z,283
2023-02-02T07:57:57.437Z,283
2023-02-02T07:58:57.440Z,283
2023-02-02T07:59:57.434Z,321
2023-02-02T08:00:57.513Z,321
2023-02-02T08:01:57.448Z,321
2023-02-02T08:02:57.503Z,321
2023-02-02T08:03:57.445Z,321
2023-02-02T08:04:57.449Z,344
2023-02-02T08:05:57.445Z,344
2023-02-02T08:06:57.449Z,344
2023-02-02T08:07:57.452Z,344
2023-02-02T08:08:57.476Z,344
2023-02-02T08:09:57.449Z,367
2023-02-02T08:10:57.463Z,367
2023-02-02T08:11:57.453Z,367
2023-02-02T08:12:57.468Z,367
2023-02-02T08:13:57.459Z,367
2023-02-02T08:14:57.463Z,402
2023-02-02T08:15:57.506Z,402
2023-02-02T08:16:57.486Z,402
2023-02-02T08:17:57.460Z,402
2023-02-02T08:18:57.462Z,402
2023-02-02T08:19:57.466Z,456
2023-02-02T08:20:57.466Z,456
2023-02-02T08:21:57.470Z,456
2023-02-02T08:22:57.473Z,456
2023-02-02T08:23:57.475Z,456
2023-02-02T08:24:57.483Z,419
2023-02-02T08:25:57.476Z,419
2023-02-02T08:26:57.489Z,419
2023-02-02T08:27:57.480Z,419
2023-02-02T08:28:57.505Z,419
2023-02-02T08:29:57.496Z,475
2023-02-02T08:30:57.488Z,475
2023-02-02T08:31:57.643Z,475
2023-02-02T08:32:57.507Z,475
2023-02-02T08:33:57.490Z,475
2023-02-02T08:34:57.487Z,433
2023-02-02T08:35:57.493Z,433
2023-02-02T08:36:57.498Z,433
2023-02-02T08:37:57.501Z,433
2023-02-02T08:38:57.501Z,433
2023-02-02T08:39:57.564Z,486
2023-02-02T08:40:57.503Z,486
2023-02-02T08:41:57.517Z,486
2023-02-02T08:42:57.502Z,486
2023-02-02T08:43:57.507Z,486
2023-02-02T08:46:00.516Z,492
2023-02-02T08:46:03.548Z,492
2023-02-02T08:46:57.512Z,492
2023-02-02T08:48:10.698Z,492
2023-02-02T08:48:57.576Z,492
2023-02-02T08:49:57.513Z,535
2023-02-02T08:50:57.514Z,535
2023-02-02T08:51:57.516Z,535
2023-02-02T08:52:57.519Z,535
2023-02-02T08:53:57.523Z,535
2023-02-02T08:54:57.550Z,565
2023-02-02T08:55:57.531Z,565
2023-02-02T08:56:57.521Z,565
2023-02-02T08:57:57.520Z,565
2023-02-02T08:58:57.525Z,565
2023-02-02T08:59:57.527Z,606
2023-02-02T09:00:57.550Z,606
2023-02-02T09:01:57.582Z,606
2023-02-02T09:02:57.528Z,606
2023-02-02T09:03:57.552Z,606
2023-02-02T09:04:57.556Z,547
2023-02-02T09:05:57.535Z,547
2023-02-02T09:06:57.550Z,547
2023-02-02T09:07:57.534Z,547
2023-02-02T09:08:57.546Z,547
2023-02-02T09:09:57.539Z,625
2023-02-02T09:10:57.543Z,625
2023-02-02T09:11:57.540Z,625
2023-02-02T09:12:57.536Z,625
2023-02-02T09:13:57.539Z,625
2023-02-02T09:14:57.542Z,650
2023-02-02T09:15:57.546Z,650
2023-02-02T09:16:57.566Z,650
2023-02-02T09:17:57.545Z,650
2023-02-02T09:18:57.546Z,650
2023-02-02T09:19:57.550Z,562
2023-02-02T09:20:57.574Z,562
2023-02-02T09:21:57.557Z,562
2023-02-02T09:22:57.562Z,562
2023-02-02T09:23:57.549Z,562
2023-02-02T09:24:57.556Z,495
2023-02-02T09:25:57.556Z,495
2023-02-02T09:26:57.622Z,495
2023-02-02T09:27:57.571Z,495
2023-02-02T09:28:57.559Z,495
2023-02-02T09:29:57.558Z,543
2023-02-02T09:30:57.598Z,543
2023-02-02T09:31:57.626Z,543
2023-02-02T09:32:57.560Z,543
2023-02-02T09:33:57.560Z,543
2023-02-02T09:34:57.565Z,588
2023-02-02T09:35:57.564Z,588
2023-02-02T09:36:57.588Z,588
2023-02-02T09:37:57.563Z,588
2023-02-02T09:38:57.569Z,588
2023-02-02T09:39:57.567Z,704
2023-02-02T09:40:57.567Z,704
2023-02-02T09:41:57.566Z,704
2023-02-02T09:42:57.567Z,704
2023-02-02T09:43:57.566Z,704
2023-02-02T09:44:57.583Z,627
2023-02-02T09:45:57.588Z,627
2023-02-02T09:46:57.571Z,627
2023-02-02T09:47:57.570Z,627
2023-02-02T09:48:57.574Z,627
2023-02-02T09:49:57.592Z,666
2023-02-02T09:50:57.572Z,666
2023-02-02T09:51:57.577Z,666
2023-02-02T09:52:57.600Z,666
2023-02-02T09:53:57.578Z,666
2023-02-02T09:54:57.621Z,639
2023-02-02T09:55:57.581Z,639
2023-02-02T09:56:57.592Z,639
2023-02-02T09:57:57.576Z,639
2023-02-02T09:59:02.124Z,639
2023-02-02T09:59:57.584Z,793
2023-02-02T10:00:57.676Z,793
2023-02-02T10:01:57.586Z,793
2023-02-02T10:02:57.581Z,793
2023-02-02T10:03:57.658Z,793
2023-02-02T10:04:57.581Z,751
2023-02-02T10:05:57.582Z,751
2023-02-02T10:06:57.583Z,751
2023-02-02T10:07:57.582Z,751
2023-02-02T10:08:57.613Z,751
2023-02-02T10:09:57.589Z,917
2023-02-02T10:10:57.587Z,917
2023-02-02T10:11:57.590Z,917
2023-02-02T10:12:57.611Z,917
2023-02-02T10:13:57.590Z,917
2023-02-02T10:14:57.618Z,849
2023-02-02T10:15:58.872Z,849
2023-02-02T10:16:57.590Z,849
2023-02-02T10:17:57.602Z,849
2023-02-02T10:18:57.593Z,849
2023-02-02T10:19:57.597Z,1019
2023-02-02T10:20:57.602Z,1019
2023-02-02T10:21:57.609Z,1019
2023-02-02T10:22:57.597Z,1019
2023-02-02T10:24:00.143Z,1019
2023-02-02T10:24:57.626Z,1036
2023-02-02T10:25:57.603Z,1036
2023-02-02T10:26:57.659Z,1036
2023-02-02T10:27:57.601Z,1036
2023-02-02T10:28:57.604Z,1036
2023-02-02T10:29:57.602Z,857
2023-02-02T10:30:57.705Z,857
2023-02-02T10:31:57.777Z,857
2023-02-02T10:32:59.615Z,857
2023-02-02T10:33:57.599Z,857
2023-02-02T10:35:06.939Z,923
2023-02-02T10:35:57.612Z,923
2023-02-02T10:36:57.602Z,923
2023-02-02T10:37:57.610Z,923
2023-02-02T10:38:57.605Z,923
2023-02-02T10:39:57.703Z,966
2023-02-02T10:40:57.648Z,966
2023-02-02T10:41:57.611Z,966
2023-02-02T10:42:58.040Z,966
2023-02-02T10:43:57.604Z,966
2023-02-02T10:44:57.608Z,977
2023-02-02T10:45:57.615Z,977
2023-02-02T10:46:57.619Z,977
2023-02-02T10:47:57.615Z,977
2023-02-02T10:48:59.283Z,977
2023-02-02T10:49:57.614Z,981
2023-02-02T10:50:57.615Z,981
2023-02-02T10:51:57.622Z,981
2023-02-02T10:52:57.614Z,981
2023-02-02T10:53:57.619Z,981
2023-02-02T10:54:58.819Z,920
2023-02-02T10:55:57.619Z,920
2023-02-02T10:56:57.639Z,920
2023-02-02T10:57:57.617Z,920
2023-02-02T10:58:57.613Z,920
2023-02-02T10:59:57.615Z,933
2023-02-02T11:00:57.617Z,933
2023-02-02T11:02:00.151Z,933
2023-02-02T11:02:57.645Z,987
2023-02-02T11:03:57.618Z,987
2023-02-02T11:04:57.618Z,987
2023-02-02T11:05:57.623Z,987
2023-02-02T11:06:59.291Z,987
2023-02-02T11:07:57.623Z,944
2023-02-02T11:08:57.621Z,944
2023-02-02T11:09:57.622Z,944
2023-02-02T11:10:57.677Z,944
2023-02-02T11:11:57.627Z,944
2023-02-02T11:12:58.658Z,932
2023-02-02T11:13:57.621Z,932
2023-02-02T11:14:57.618Z,932
2023-02-02T11:15:59.939Z,932
2023-02-02T11:16:57.619Z,932
2023-02-02T11:17:57.622Z,881
2023-02-02T11:18:57.623Z,881
2023-02-02T11:19:57.634Z,881
2023-02-02T11:20:57.632Z,881
2023-02-02T11:21:57.621Z,881
2023-02-02T11:22:57.624Z,958
2023-02-02T11:23:57.622Z,958
2023-02-02T11:24:57.630Z,958
2023-02-02T11:25:57.626Z,958
2023-02-02T11:26:57.702Z,958
2023-02-02T11:27:57.625Z,943
2023-02-02T11:28:59.913Z,943
2023-02-02T11:29:57.624Z,943
2023-02-02T11:30:57.716Z,943
2023-02-02T11:31:57.733Z,943
2023-02-02T11:32:57.644Z,936
2023-02-02T11:33:57.627Z,936
2023-02-02T11:34:57.625Z,936
2023-02-02T11:35:57.636Z,936
2023-02-02T11:36:57.627Z,936
2023-02-02T11:37:57.633Z,933
2023-02-02T11:38:57.634Z,933
2023-02-02T11:39:57.639Z,933
2023-02-02T11:40:57.646Z,933
2023-02-02T11:41:57.642Z,933
2023-02-02T11:42:57.636Z,956
2023-02-02T11:43:57.643Z,956
2023-02-02T11:44:57.691Z,956
2023-02-02T11:45:57.658Z,956
2023-02-02T11:46:57.701Z,956
2023-02-02T11:47:57.647Z,951
2023-02-02T11:48:57.654Z,951
2023-02-02T11:49:58.708Z,951
2023-02-02T11:50:57.726Z,951
2023-02-02T11:51:57.656Z,951
2023-02-02T11:52:57.653Z,904
2023-02-02T11:53:57.655Z,904
2023-02-02T11:54:57.656Z,904
2023-02-02T11:55:57.663Z,904
2023-02-02T11:56:57.658Z,904
2023-02-02T11:57:57.663Z,960
2023-02-02T11:58:57.662Z,960
2023-02-02T11:59:57.662Z,960
2023-02-02T12:00:57.692Z,960
2023-02-02T12:01:57.727Z,960
2023-02-02T12:02:57.661Z,899
2023-02-02T12:03:57.741Z,899
2023-02-02T12:04:57.669Z,899
2023-02-02T12:05:57.666Z,899
2023-02-02T12:06:57.669Z,899
2023-02-02T12:07:57.668Z,837
2023-02-02T12:08:57.667Z,837
2023-02-02T12:09:57.676Z,837
2023-02-02T12:10:57.671Z,837
2023-02-02T12:11:57.674Z,837
2023-02-02T12:12:57.706Z,875
2023-02-02T12:13:57.670Z,875
2023-02-02T12:14:57.673Z,875
2023-02-02T12:15:57.762Z,875
2023-02-02T12:16:57.696Z,875
2023-02-02T12:17:57.668Z,828
2023-02-02T12:18:57.671Z,828
2023-02-02T12:19:57.671Z,828
2023-02-02T12:20:57.673Z,828
2023-02-02T12:21:57.676Z,828
2023-02-02T12:22:57.671Z,819
2023-02-02T12:23:57.676Z,819
2023-02-02T12:24:57.684Z,819
2023-02-02T12:25:57.678Z,819
2023-02-02T12:26:57.735Z,819
2023-02-02T12:27:57.677Z,705
2023-02-02T12:28:57.676Z,705
2023-02-02T12:29:57.683Z,705
2023-02-02T12:30:57.736Z,705
2023-02-02T12:31:57.757Z,705
2023-02-02T12:32:57.724Z,751
2023-02-02T12:33:57.685Z,751
2023-02-02T12:34:57.681Z,751
2023-02-02T12:35:57.684Z,751
2023-02-02T12:36:57.683Z,751
2023-02-02T12:37:57.695Z,688
2023-02-02T12:38:57.690Z,688
2023-02-02T12:39:57.690Z,688
2023-02-02T12:40:57.691Z,688
2023-02-02T12:41:57.690Z,688
2023-02-02T12:42:57.693Z,623
2023-02-02T12:43:57.696Z,623
2023-02-02T12:44:57.703Z,623
2023-02-02T12:45:57.785Z,623
2023-02-02T12:46:57.696Z,623
2023-02-02T12:47:57.695Z,723
2023-02-02T12:48:57.724Z,723
2023-02-02T12:49:57.691Z,723
2023-02-02T12:50:57.701Z,723
2023-02-02T12:51:57.702Z,723
2023-02-02T12:52:57.697Z,690
2023-02-02T12:54:34.128Z,690
2023-02-02T12:54:57.814Z,690
2023-02-02T12:55:57.703Z,690
2023-02-02T12:56:57.702Z,690
2023-02-02T12:57:57.701Z,701
2023-02-02T12:58:57.699Z,701
2023-02-02T12:59:57.704Z,701
2023-02-02T13:00:57.722Z,701
2023-02-02T13:01:57.736Z,701
2023-02-02T13:02:57.703Z,636
2023-02-02T13:03:57.711Z,673
2023-02-02T13:04:57.737Z,654
2023-02-02T13:05:57.706Z,654
2023-02-02T13:06:57.709Z,654
2023-02-02T13:07:57.709Z,606
2023-02-02T13:08:57.711Z,593
2023-02-02T13:09:57.711Z,593
2023-02-02T13:10:57.713Z,593
2023-02-02T13:11:57.716Z,593
2023-02-02T13:12:57.717Z,593
2023-02-02T13:13:57.715Z,616
2023-02-02T13:14:57.762Z,616
2023-02-02T13:15:57.718Z,616
2023-02-02T13:16:57.775Z,616
2023-02-02T13:17:57.719Z,616
2023-02-02T13:18:57.720Z,655
2023-02-02T13:19:57.725Z,655
2023-02-02T13:20:57.751Z,655
2023-02-02T13:21:57.740Z,655
2023-02-02T13:22:57.724Z,655
2023-02-02T13:23:57.728Z,615
2023-02-02T13:24:59.467Z,615
2023-02-02T13:25:57.750Z,615
2023-02-02T13:26:57.823Z,615
2023-02-02T13:27:57.731Z,615
2023-02-02T13:28:57.727Z,568
2023-02-02T13:29:57.735Z,568
2023-02-02T13:30:57.815Z,533
2023-02-02T13:31:57.842Z,519
2023-02-02T13:32:57.731Z,510
2023-02-02T13:33:57.729Z,497
2023-02-02T13:34:57.731Z,489
2023-02-02T13:35:57.732Z,478
2023-02-02T13:36:57.759Z,494
2023-02-02T13:37:57.736Z,485
2023-02-02T13:38:57.735Z,466
2023-02-02T13:39:57.733Z,458
2023-02-02T13:40:57.739Z,459
2023-02-02T13:41:57.737Z,469
2023-02-02T13:42:57.738Z,518
2023-02-02T13:43:57.756Z,467
2023-02-02T13:44:57.742Z,452
2023-02-02T13:45:57.757Z,442
2023-02-02T13:46:57.741Z,441
2023-02-02T13:47:57.741Z,437
2023-02-02T13:48:57.743Z,423
2023-02-02T13:49:57.742Z,409
2023-02-02T13:50:57.745Z,398
2023-02-02T13:51:57.752Z,396
2023-02-02T13:52:57.772Z,395
2023-02-02T13:53:57.755Z,395
2023-02-02T13:54:57.752Z,397
2023-02-02T13:55:57.752Z,395
2023-02-02T13:56:57.754Z,400
2023-02-02T13:57:57.753Z,397
2023-02-02T13:58:57.752Z,389
2023-02-02T13:59:57.760Z,383
2023-02-02T14:00:57.808Z,377
2023-02-02T14:01:57.759Z,386
2023-02-02T14:02:57.759Z,395
2023-02-02T14:03:57.759Z,402
2023-02-02T14:04:57.778Z,403
2023-02-02T14:05:57.765Z,403
2023-02-02T14:06:57.763Z,382
2023-02-02T14:07:57.783Z,382
2023-02-02T14:08:57.794Z,382
2023-02-02T14:09:57.767Z,382
2023-02-02T14:10:57.764Z,390
2023-02-02T14:11:57.765Z,348
2023-02-02T14:12:57.770Z,348
2023-02-02T14:13:57.770Z,348
2023-02-02T14:14:57.767Z,348